createdAt,value
2023-04-22T07:02:16.349Z,100108.44
2023-04-22T07:06:19.663Z,100107.01
2023-04-22T07:10:22.845Z,100104.63
2023-04-22T07:14:27.629Z,100108.16
2023-04-22T07:18:31.016Z,100106.73
2023-04-22T07:22:34.261Z,100108.83
2023-04-22T07:26:38.457Z,100107.02
2023-04-22T07:30:41.570Z,100104.92
2023-04-22T07:34:45.048Z,100103.64
2023-04-22T07:38:48.403Z,100099.74
2023-04-22T07:42:51.952Z,100099.92
2023-04-22T07:46:56.557Z,100101.02
2023-04-22T07:51:00.121Z,100102.63
2023-04-22T07:55:06.335Z,100099.56
2023-04-22T07:59:12.507Z,100092.37
2023-04-22T08:19:56.814Z,100102.30
2023-04-22T08:23:59.682Z,100097.70
2023-04-22T08:28:02.756Z,100095.31
2023-04-22T08:32:05.944Z,100094.67
2023-04-22T08:36:11.911Z,100096.90
2023-04-22T08:40:15.506Z,100095.48
2023-04-22T08:44:22.866Z,100093.18
2023-04-22T08:48:26.999Z,100094.33
2023-04-22T08:52:31.933Z,100090.55
2023-04-22T08:56:37.663Z,100089.55
2023-04-22T09:00:44.855Z,100086.76
2023-04-22T09:04:50.943Z,100087.00
2023-04-22T09:08:55.869Z,100086.71
2023-04-22T09:13:02.039Z,100085.19
2023-04-22T09:17:05.606Z,100085.01
2023-04-22T09:21:09.167Z,100083.21
2023-04-22T09:25:17.648Z,100083.83
2023-04-22T09:29:21.381Z,100080.77
2023-04-22T09:33:26.842Z,100076.61
2023-04-22T09:37:42.802Z,100073.11
2023-04-22T09:41:58.979Z,100065.67
2023-04-22T09:46:03.555Z,100063.98
2023-04-22T09:50:10.564Z,100062.98
2023-04-22T09:59:01.697Z,100055.83
2023-04-22T10:03:06.706Z,100052.16
2023-04-22T10:07:10.852Z,100053.43
2023-04-22T10:11:13.879Z,100051.20
2023-04-22T10:15:16.978Z,100056.79
2023-04-22T10:19:25.139Z,100053.67
2023-04-22T10:23:32.963Z,100047.25
2023-04-22T10:27:36.334Z,100041.02
2023-04-22T10:31:39.967Z,100033.04
2023-04-22T10:36:15.219Z,100029.58
2023-04-22T10:40:18.951Z,100022.27
2023-04-22T10:44:23.214Z,100019.07
2023-04-22T10:48:49.147Z,100017.67
2023-04-22T10:53:04.129Z,100015.08
2023-04-22T10:57:08.092Z,100012.02
2023-04-22T11:01:17.545Z,100008.21
2023-04-22T11:05:26.010Z,100003.88
2023-04-22T11:09:29.480Z,99999.02
2023-04-22T11:13:32.534Z,99995.42
2023-04-22T11:17:36.752Z,99992.84
2023-04-22T11:21:40.556Z,99985.28
2023-04-22T11:25:43.725Z,99975.30
2023-04-22T11:30:00.321Z,99971.25
2023-04-22T11:34:03.301Z,99968.30
2023-04-22T11:38:06.504Z,99966.34
2023-04-22T11:42:09.466Z,99963.76
2023-04-22T11:46:12.507Z,99962.54
2023-04-22T11:50:16.032Z,99956.89
2023-04-22T11:54:31.205Z,99951.48
2023-04-22T11:58:38.629Z,99949.71
2023-04-22T12:02:42.281Z,99948.38
2023-04-22T12:06:47.112Z,99952.52
2023-04-22T12:10:53.348Z,99946.17
2023-04-22T12:14:58.353Z,99948.12
2023-04-22T12:19:03.789Z,99942.07
2023-04-22T12:23:13.516Z,99934.32
2023-04-22T12:27:16.769Z,99928.56
2023-04-22T12:31:20.230Z,99922.69
2023-04-22T12:35:23.348Z,99914.44
2023-04-22T12:39:26.542Z,99914.02
2023-04-22T12:43:29.635Z,99911.90
2023-04-22T12:47:33.362Z,99906.98
2023-04-22T12:51:36.359Z,99900.71
2023-04-22T12:55:39.625Z,99900.98
2023-04-22T12:59:42.749Z,99902.94
2023-04-22T13:03:46.027Z,99889.52
2023-04-22T13:07:59.647Z,99885.81
2023-04-22T13:12:09.505Z,99876.95
2023-04-22T13:16:12.577Z,99873.20
2023-04-22T13:20:16.585Z,99867.45
2023-04-22T13:24:20.013Z,99865.77
2023-04-22T13:28:23.083Z,99859.88
2023-04-22T13:32:26.193Z,99859.19
2023-04-22T13:36:29.342Z,99855.67
2023-04-22T13:40:32.580Z,99855.45
2023-04-22T13:44:36.288Z,99851.84
2023-04-22T13:48:39.356Z,99850.92
2023-04-22T13:52:42.678Z,99846.49
2023-04-22T13:56:45.823Z,99842.34
2023-04-22T14:00:49.070Z,99843.05
2023-04-22T14:04:52.311Z,99841.50
2023-04-22T14:08:55.567Z,99839.89
2023-04-22T14:12:58.581Z,99839.00
2023-04-22T14:17:01.662Z,99833.92
2023-04-22T14:21:07.196Z,99830.34
2023-04-22T14:25:10.464Z,99827.81
2023-04-22T14:29:14.161Z,99825.79
2023-04-22T14:33:17.427Z,99822.52
2023-04-22T14:37:21.658Z,99819.38
2023-04-22T14:41:25.330Z,99813.03
2023-04-22T14:45:30.338Z,99810.36
2023-04-22T14:49:33.398Z,99806.86
2023-04-22T14:53:37.299Z,99804.69
2023-04-22T14:57:40.301Z,99797.21
2023-04-22T15:01:43.302Z,99793.07
2023-04-22T15:05:49.420Z,99793.85
2023-04-22T15:09:52.898Z,99791.30
2023-04-22T15:13:55.865Z,99791.03
2023-04-22T15:17:59.095Z,99788.10
2023-04-22T15:22:02.391Z,99786.02
2023-04-22T15:26:05.475Z,99784.63
2023-04-22T15:30:10.926Z,99783.19
2023-04-22T15:34:14.934Z,99781.20
2023-04-22T15:38:17.924Z,99778.92
2023-04-22T15:42:20.886Z,99775.65
2023-04-22T15:46:23.934Z,99774.91
2023-04-22T15:50:27.277Z,99771.58
2023-04-22T15:54:30.456Z,99772.59
2023-04-22T15:58:34.710Z,99767.66
2023-04-22T16:02:38.249Z,99764.57
2023-04-22T16:06:41.563Z,99764.95
2023-04-22T16:10:44.903Z,99760.09
2023-04-22T16:14:48.086Z,99757.60
2023-04-22T16:18:51.178Z,99754.73
2023-04-22T16:22:54.036Z,99754.82
2023-04-22T16:26:56.986Z,99752.98
2023-04-22T16:31:00.685Z,99749.85
2023-04-22T16:35:04.684Z,99746.36
2023-04-22T16:39:07.739Z,99741.46
2023-04-22T16:43:13.006Z,99743.52
2023-04-22T16:47:16.037Z,99742.57
2023-04-22T16:51:18.977Z,99737.35
2023-04-22T16:55:21.859Z,99735.09
2023-04-22T16:59:24.795Z,99732.02
2023-04-22T17:03:28.306Z,99727.41
2023-04-22T17:07:31.491Z,99729.54
2023-04-22T17:11:34.418Z,99729.55
2023-04-22T17:15:37.299Z,99724.96
2023-04-22T17:19:40.431Z,99721.67
2023-04-22T17:23:43.624Z,99722.48
2023-04-22T17:27:46.653Z,99721.21
2023-04-22T17:31:50.739Z,99719.89
2023-04-22T17:35:53.704Z,99721.35
2023-04-22T17:39:56.605Z,99721.66
2023-04-22T17:43:59.650Z,99717.84
2023-04-22T17:48:03.041Z,99721.13
2023-04-22T17:52:07.140Z,99726.04
2023-04-22T17:56:10.288Z,99719.45
2023-04-22T18:00:18.142Z,99722.23
2023-04-22T18:04:21.262Z,99729.27
2023-04-22T18:08:24.371Z,99730.27
2023-04-22T18:12:30.675Z,99733.36
2023-04-22T18:16:34.109Z,99736.70
2023-04-22T18:20:37.297Z,99739.30
2023-04-22T18:24:40.892Z,99745.48
2023-04-22T18:28:44.670Z,99748.73
2023-04-22T18:32:48.547Z,99749.50
2023-04-22T18:36:51.797Z,99752.52
2023-04-22T18:40:55.470Z,99752.44
2023-04-22T18:44:58.438Z,99756.69
2023-04-22T18:49:01.403Z,99757.02
2023-04-22T18:53:04.842Z,99751.10
2023-04-22T18:57:07.953Z,99749.17
2023-04-22T19:01:11.403Z,99752.59
2023-04-22T19:05:14.789Z,99753.54
2023-04-22T19:09:19.471Z,99756.23
2023-04-22T19:13:29.603Z,99762.21
2023-04-22T19:17:34.756Z,99752.04
2023-04-22T19:21:39.228Z,99752.48
2023-04-22T19:25:42.696Z,99752.16
2023-04-22T19:29:51.300Z,99749.61
2023-04-22T19:33:54.230Z,99751.98
2023-04-22T19:37:57.133Z,99753.64
2023-04-22T19:42:03.698Z,99758.02
2023-04-22T19:46:07.416Z,99759.10
2023-04-22T19:50:11.302Z,99754.39
2023-04-22T19:54:16.170Z,99756.58
2023-04-22T19:58:20.138Z,99753.95
2023-04-22T20:02:23.930Z,99749.27
2023-04-22T20:06:28.945Z,99747.65
2023-04-22T20:10:32.448Z,99746.42
2023-04-22T20:14:36.235Z,99745.05
2023-04-22T20:18:39.490Z,99740.84
2023-04-22T20:22:44.021Z,99738.70
2023-04-22T20:26:50.665Z,99743.30
2023-04-22T20:30:53.861Z,99740.73
2023-04-22T20:34:57.225Z,99736.38
2023-04-22T20:39:05.329Z,99737.28
2023-04-22T20:43:08.879Z,99737.64
2023-04-22T20:47:13.889Z,99738.89
2023-04-22T20:51:17.299Z,99738.50
2023-04-22T20:55:21.859Z,99738.21
2023-04-22T20:59:25.065Z,99738.61
2023-04-22T21:03:28.995Z,99740.28
2023-04-22T21:07:34.200Z,99738.20
2023-04-22T21:11:38.780Z,99738.05
2023-04-22T21:15:48.465Z,99733.25
2023-04-22T21:19:56.874Z,99732.83
2023-04-22T21:24:02.257Z,99729.38
2023-04-22T21:28:05.921Z,99730.02
2023-04-22T21:32:10.032Z,99725.96
2023-04-22T21:36:13.774Z,99726.33
2023-04-22T21:40:17.112Z,99729.63
2023-04-22T21:44:20.327Z,99738.13
2023-04-22T21:48:23.504Z,99736.71
2023-04-22T21:52:27.200Z,99730.91
2023-04-22T21:56:34.202Z,99731.19
2023-04-22T22:00:38.860Z,99733.11
2023-04-22T22:04:42.607Z,99735.25
2023-04-22T22:08:46.980Z,99734.66
2023-04-22T22:12:51.058Z,99730.13
2023-04-22T22:16:59.174Z,99730.63
2023-04-22T22:21:02.498Z,99734.09
2023-04-22T22:25:07.874Z,99737.02
2023-04-22T22:29:16.422Z,99736.17
2023-04-22T22:33:19.640Z,99737.83
2023-04-22T22:37:23.446Z,99740.57
2023-04-22T22:41:26.714Z,99739.89
2023-04-22T22:45:30.438Z,99733.20
2023-04-22T22:49:34.069Z,99737.37
2023-04-22T22:53:37.661Z,99737.04
2023-04-22T22:57:41.240Z,99735.23
2023-04-22T23:01:44.695Z,99730.91
2023-04-22T23:05:50.895Z,99731.11
2023-04-22T23:09:54.046Z,99729.63
2023-04-22T23:13:58.721Z,99726.49
2023-04-22T23:18:02.149Z,99723.77
2023-04-22T23:22:07.408Z,99720.23
2023-04-22T23:26:11.528Z,99720.89
2023-04-22T23:30:15.368Z,99716.80
2023-04-22T23:34:22.763Z,99715.23
2023-04-22T23:38:25.984Z,99711.06
2023-04-22T23:42:29.369Z,99713.38
2023-04-22T23:46:32.737Z,99708.79
2023-04-22T23:50:35.985Z,99703.67
2023-04-22T23:54:40.409Z,99701.00
2023-04-22T23:58:44.410Z,99697.92
